createdAt,value
2023-05-10T00:00:43.626Z,15.04
2023-05-10T00:01:39.191Z,14.96
2023-05-10T00:02:34.810Z,15.04
2023-05-10T00:03:30.328Z,15.04
2023-05-10T00:04:25.783Z,14.95
2023-05-10T00:05:21.311Z,14.95
2023-05-10T00:06:16.856Z,14.92
2023-05-10T00:07:12.390Z,15.01
2023-05-10T00:08:07.931Z,14.97
2023-05-10T00:09:03.467Z,14.95
2023-05-10T00:09:58.986Z,14.95
2023-05-10T00:10:54.565Z,14.97
2023-05-10T00:11:50.092Z,14.90
2023-05-10T00:12:45.666Z,14.90
2023-05-10T00:13:41.161Z,14.93
2023-05-10T00:14:36.691Z,14.92
2023-05-10T00:15:32.240Z,14.86
2023-05-10T00:16:27.832Z,14.95
2023-05-10T00:17:23.344Z,14.90
2023-05-10T00:18:18.893Z,14.90
2023-05-10T00:19:14.406Z,14.79
2023-05-10T00:20:09.919Z,14.79
2023-05-10T00:21:05.459Z,14.82
2023-05-10T00:22:00.997Z,14.87
2023-05-10T00:22:56.529Z,14.92
2023-05-10T00:23:52.078Z,14.90
2023-05-10T00:24:47.603Z,14.90
2023-05-10T00:25:43.136Z,14.85
2023-05-10T00:26:38.694Z,14.90
2023-05-10T00:27:34.207Z,14.90
2023-05-10T00:28:29.734Z,14.82
2023-05-10T00:29:25.269Z,14.87
2023-05-10T00:30:20.821Z,14.82
2023-05-10T00:31:16.357Z,14.74
2023-05-10T00:32:12.031Z,14.74
2023-05-10T00:33:07.514Z,14.74
2023-05-10T00:34:02.999Z,14.69
2023-05-10T00:34:58.998Z,14.63
2023-05-10T00:35:54.541Z,14.71
2023-05-10T00:36:50.061Z,14.69
2023-05-10T00:37:45.599Z,14.74
2023-05-10T00:38:41.133Z,14.69
2023-05-10T00:39:36.678Z,14.70
2023-05-10T00:40:32.218Z,14.73
2023-05-10T00:41:27.748Z,14.63
2023-05-10T00:42:23.291Z,14.67
2023-05-10T00:43:18.836Z,14.74
2023-05-10T00:44:14.368Z,14.70
2023-05-10T00:45:09.903Z,14.69
2023-05-10T00:46:05.509Z,14.66
2023-05-10T00:47:00.971Z,14.63
2023-05-10T00:47:56.552Z,14.70
2023-05-10T00:48:52.052Z,14.55
2023-05-10T00:49:47.608Z,14.55
2023-05-10T00:50:43.114Z,14.56
2023-05-10T00:51:38.650Z,14.70
2023-05-10T00:52:34.212Z,14.66
2023-05-10T00:53:29.746Z,14.66
2023-05-10T00:54:25.303Z,14.64
2023-05-10T00:55:20.832Z,14.66
2023-05-10T00:56:16.371Z,14.64
2023-05-10T00:57:11.905Z,14.58
2023-05-10T00:58:07.454Z,14.55
2023-05-10T00:59:03.001Z,14.52
2023-05-10T00:59:58.535Z,14.56
2023-05-10T01:00:54.067Z,14.59
2023-05-10T01:01:49.614Z,14.51
2023-05-10T01:02:45.219Z,14.59
2023-05-10T01:03:40.736Z,14.55
2023-05-10T01:04:36.288Z,14.53
2023-05-10T01:05:31.787Z,14.52
2023-05-10T01:06:27.304Z,14.44
2023-05-10T01:07:22.825Z,14.49
2023-05-10T01:08:18.365Z,14.46
2023-05-10T01:09:13.896Z,14.40
2023-05-10T01:10:09.433Z,14.45
2023-05-10T01:11:04.975Z,14.45
2023-05-10T01:12:00.549Z,14.48
2023-05-10T01:12:56.063Z,14.52
2023-05-10T01:13:51.572Z,14.51
2023-05-10T01:14:47.103Z,14.53
2023-05-10T01:15:42.662Z,14.49
2023-05-10T01:16:38.191Z,14.38
2023-05-10T01:17:33.759Z,14.49
2023-05-10T01:18:29.252Z,14.31
2023-05-10T01:19:24.797Z,14.44
2023-05-10T01:20:20.356Z,14.45
2023-05-10T01:21:15.993Z,14.40
2023-05-10T01:22:11.431Z,14.36
2023-05-10T01:23:06.966Z,14.40
2023-05-10T01:24:02.500Z,14.40
2023-05-10T01:24:58.044Z,14.38
2023-05-10T01:25:53.583Z,14.46
2023-05-10T01:26:49.121Z,14.44
2023-05-10T01:27:44.655Z,14.45
2023-05-10T01:28:40.182Z,14.46
2023-05-10T01:29:35.710Z,14.38
2023-05-10T01:30:31.252Z,14.38
2023-05-10T01:31:26.827Z,14.38
2023-05-10T01:32:22.344Z,14.31
2023-05-10T01:33:17.879Z,14.37
2023-05-10T01:34:14.420Z,14.34
2023-05-10T01:35:09.961Z,14.27
2023-05-10T01:36:05.487Z,14.30
2023-05-10T01:37:01.063Z,14.28
2023-05-10T01:37:56.564Z,14.28
2023-05-10T01:38:52.090Z,14.31
2023-05-10T01:39:47.628Z,14.31
2023-05-10T01:40:43.165Z,14.28
2023-05-10T01:41:38.692Z,14.26
2023-05-10T01:42:34.220Z,14.22
2023-05-10T01:43:29.774Z,14.28
2023-05-10T01:44:25.300Z,14.30
2023-05-10T01:45:20.834Z,14.16
2023-05-10T01:46:16.419Z,14.23
2023-05-10T01:47:11.921Z,14.27
2023-05-10T01:48:07.492Z,14.23
2023-05-10T01:49:02.991Z,14.23
2023-05-10T01:49:58.547Z,14.19
2023-05-10T01:50:54.087Z,14.26
2023-05-10T01:51:49.613Z,14.22
2023-05-10T01:52:45.174Z,14.09
2023-05-10T01:53:40.724Z,14.16
2023-05-10T01:54:36.250Z,14.08
2023-05-10T01:55:31.787Z,14.12
2023-05-10T01:56:27.328Z,14.16
2023-05-10T01:57:22.856Z,14.13
2023-05-10T01:58:18.390Z,14.15
2023-05-10T01:59:13.940Z,14.12
2023-05-10T02:00:09.481Z,14.09
2023-05-10T02:01:05.037Z,14.13
2023-05-10T02:02:01.144Z,14.03
2023-05-10T02:02:56.727Z,14.11
2023-05-10T02:03:52.262Z,14.16
2023-05-10T02:04:47.749Z,14.09
2023-05-10T02:05:43.281Z,14.05
2023-05-10T02:06:38.831Z,14.12
2023-05-10T02:07:34.353Z,13.98
2023-05-10T02:08:29.920Z,14.05
2023-05-10T02:09:25.440Z,14.03
2023-05-10T02:10:20.981Z,13.91
2023-05-10T02:11:16.508Z,13.97
2023-05-10T02:12:12.058Z,13.93
2023-05-10T02:13:07.659Z,14.01
2023-05-10T02:14:03.135Z,13.96
2023-05-10T02:14:58.668Z,13.98
2023-05-10T02:15:54.190Z,13.93
2023-05-10T02:16:49.808Z,13.98
2023-05-10T02:17:45.284Z,13.93
2023-05-10T02:18:40.822Z,14.04
2023-05-10T02:19:36.373Z,13.98
2023-05-10T02:20:31.893Z,14.03
2023-05-10T02:21:27.441Z,13.97
2023-05-10T02:22:22.980Z,13.94
2023-05-10T02:23:18.521Z,13.86
2023-05-10T02:24:14.065Z,14.00
2023-05-10T02:25:09.583Z,13.93
2023-05-10T02:26:05.117Z,13.93
2023-05-10T02:27:00.655Z,13.90
2023-05-10T02:27:56.208Z,13.93
2023-05-10T02:28:51.751Z,13.94
2023-05-10T02:29:47.274Z,13.91
2023-05-10T02:30:42.816Z,13.88
2023-05-10T02:31:38.358Z,13.86
2023-05-10T02:32:33.888Z,13.94
2023-05-10T02:33:29.421Z,13.88
2023-05-10T02:34:24.941Z,13.83
2023-05-10T02:35:20.476Z,13.82
2023-05-10T02:36:16.149Z,13.76
2023-05-10T02:37:11.559Z,13.78
2023-05-10T02:38:07.097Z,13.73
2023-05-10T02:39:02.626Z,13.65
2023-05-10T02:39:58.336Z,13.79
2023-05-10T02:40:53.716Z,13.63
2023-05-10T02:41:49.246Z,13.58
2023-05-10T02:42:44.798Z,13.71
2023-05-10T02:43:40.338Z,13.65
2023-05-10T02:44:35.867Z,13.60
2023-05-10T02:45:31.420Z,13.60
2023-05-10T02:46:26.973Z,13.63
2023-05-10T02:47:22.482Z,13.64
2023-05-10T02:48:18.001Z,13.61
2023-05-10T02:49:13.541Z,13.61
2023-05-10T02:50:09.089Z,13.67
2023-05-10T02:51:04.621Z,13.60
2023-05-10T02:52:00.177Z,13.65
2023-05-10T02:52:55.725Z,13.68
2023-05-10T02:53:51.247Z,13.82
2023-05-10T02:54:46.791Z,13.68
2023-05-10T02:55:42.961Z,13.72
2023-05-10T02:56:38.466Z,13.61
2023-05-10T02:57:34.006Z,13.55
2023-05-10T02:58:29.543Z,13.58
2023-05-10T02:59:25.094Z,13.58
2023-05-10T03:00:20.609Z,13.55
2023-05-10T03:01:16.209Z,13.46
2023-05-10T03:02:11.722Z,13.53
2023-05-10T03:03:07.321Z,13.53
2023-05-10T03:04:02.814Z,13.51
2023-05-10T03:04:58.420Z,13.51
2023-05-10T03:05:53.903Z,13.45
2023-05-10T03:06:49.451Z,13.47
2023-05-10T03:07:44.986Z,13.45
2023-05-10T03:08:40.529Z,13.53
2023-05-10T03:09:36.072Z,13.55
2023-05-10T03:10:31.594Z,13.54
2023-05-10T03:11:27.279Z,13.40
2023-05-10T03:12:22.662Z,13.45
2023-05-10T03:13:18.272Z,13.45
2023-05-10T03:14:13.738Z,13.47
2023-05-10T03:15:16.538Z,13.43
2023-05-10T03:16:12.101Z,13.47
2023-05-10T03:17:08.138Z,13.39
2023-05-10T03:18:03.725Z,13.40
2023-05-10T03:18:59.221Z,13.42
2023-05-10T03:19:54.754Z,13.43
2023-05-10T03:20:50.295Z,13.40
2023-05-10T03:21:45.839Z,13.40
2023-05-10T03:22:41.392Z,13.42
2023-05-10T03:23:36.941Z,13.24
2023-05-10T03:24:32.470Z,13.29
2023-05-10T03:25:28.004Z,13.35
2023-05-10T03:26:23.549Z,13.38
2023-05-10T03:27:19.129Z,13.35
2023-05-10T03:28:14.663Z,13.27
2023-05-10T03:29:10.198Z,13.35
2023-05-10T03:30:05.746Z,13.29
2023-05-10T03:31:01.363Z,13.38
2023-05-10T03:31:56.856Z,13.35
2023-05-10T03:32:52.474Z,13.23
2023-05-10T03:33:47.912Z,13.23
2023-05-10T03:34:43.446Z,13.21
2023-05-10T03:35:39.038Z,13.20
2023-05-10T03:36:34.535Z,13.17
2023-05-10T03:37:30.075Z,13.21
2023-05-10T03:38:25.621Z,13.24
2023-05-10T03:39:21.172Z,13.04
2023-05-10T03:40:17.026Z,13.14
2023-05-10T03:41:12.250Z,13.19
2023-05-10T03:42:07.793Z,13.20
2023-05-10T03:43:03.372Z,13.14
2023-05-10T03:43:58.869Z,13.13
2023-05-10T03:44:54.408Z,13.13
2023-05-10T03:45:49.945Z,13.16
2023-05-10T03:46:45.524Z,13.09
2023-05-10T03:47:41.070Z,13.08
2023-05-10T03:48:36.566Z,13.05
2023-05-10T03:49:32.102Z,13.14
2023-05-10T03:50:27.643Z,13.08
2023-05-10T03:51:23.180Z,13.13
2023-05-10T03:52:18.728Z,13.01
2023-05-10T03:53:14.275Z,13.06
2023-05-10T03:54:09.803Z,12.95
2023-05-10T03:55:05.355Z,12.99
2023-05-10T03:56:00.898Z,12.91
2023-05-10T03:56:56.415Z,12.95
2023-05-10T03:57:51.961Z,13.02
2023-05-10T03:58:36.667Z,12.98
2023-05-10T03:59:32.528Z,12.88
2023-05-10T04:00:28.079Z,12.90
2023-05-10T04:01:12.745Z,12.91
2023-05-10T04:02:08.328Z,12.90
2023-05-10T04:02:53.046Z,13.01
2023-05-10T04:03:48.635Z,12.99
2023-05-10T04:04:44.094Z,12.95
2023-05-10T04:05:39.653Z,12.91
2023-05-10T04:06:35.261Z,13.04
2023-05-10T04:07:30.717Z,12.98
2023-05-10T04:08:26.284Z,13.01
2023-05-10T04:09:21.835Z,12.95
2023-05-10T04:10:17.796Z,12.91
2023-05-10T04:11:12.917Z,12.99
2023-05-10T04:12:09.499Z,12.83
2023-05-10T04:13:04.060Z,12.93
2023-05-10T04:13:59.548Z,12.90
2023-05-10T04:14:44.194Z,12.98
2023-05-10T04:15:39.745Z,12.84
2023-05-10T04:16:35.307Z,12.87
2023-05-10T04:17:30.956Z,12.91
2023-05-10T04:18:26.358Z,12.90
2023-05-10T04:19:21.897Z,12.87
2023-05-10T04:20:17.702Z,12.91
2023-05-10T04:21:13.023Z,12.93
2023-05-10T04:22:08.545Z,12.88
2023-05-10T04:23:04.081Z,12.91
2023-05-10T04:23:59.616Z,12.83
2023-05-10T04:24:55.163Z,12.72
2023-05-10T04:25:50.706Z,12.87
2023-05-10T04:26:46.237Z,12.72
2023-05-10T04:27:41.770Z,12.76
2023-05-10T04:28:37.313Z,12.81
2023-05-10T04:29:32.872Z,12.84
2023-05-10T04:30:28.407Z,12.90
2023-05-10T04:31:13.305Z,12.87
2023-05-10T04:32:08.765Z,12.86
2023-05-10T04:32:53.460Z,12.87
2023-05-10T04:33:48.964Z,12.86
2023-05-10T04:34:44.514Z,12.76
2023-05-10T04:35:40.192Z,12.81
2023-05-10T04:36:35.718Z,12.87
2023-05-10T04:37:31.258Z,12.91
2023-05-10T04:38:26.795Z,12.95
2023-05-10T04:39:22.338Z,12.90
2023-05-10T04:40:18.022Z,12.88
2023-05-10T04:41:13.417Z,12.86
2023-05-10T04:42:08.972Z,12.73
2023-05-10T04:43:04.508Z,12.77
2023-05-10T04:44:00.058Z,12.87
2023-05-10T04:44:55.593Z,12.83
2023-05-10T04:45:51.143Z,12.79
2023-05-10T04:46:46.745Z,12.79
2023-05-10T04:47:42.236Z,12.86
2023-05-10T04:48:26.859Z,12.80
2023-05-10T04:49:11.526Z,12.87
2023-05-10T04:50:07.067Z,12.90
2023-05-10T04:51:02.610Z,12.90
2023-05-10T04:51:58.144Z,12.81
2023-05-10T04:52:53.684Z,12.84
2023-05-10T04:54:44.772Z,12.87
2023-05-10T04:55:40.316Z,12.86
2023-05-10T04:56:35.843Z,12.81
2023-05-10T04:57:31.400Z,12.90
2023-05-10T04:58:26.952Z,12.93
2023-05-10T04:59:22.522Z,12.80
2023-05-10T05:00:18.311Z,12.79
2023-05-10T05:01:13.625Z,12.80
2023-05-10T05:02:09.267Z,12.86
2023-05-10T05:03:04.817Z,12.95
2023-05-10T05:04:00.413Z,12.93
2023-05-10T05:04:55.848Z,12.91
2023-05-10T05:05:51.403Z,12.88
2023-05-10T05:06:46.953Z,12.87
2023-05-10T05:07:42.531Z,12.96
2023-05-10T05:08:27.200Z,12.90
2023-05-10T05:09:22.774Z,12.88
2023-05-10T05:10:18.538Z,12.81
2023-05-10T05:11:03.061Z,12.88
2023-05-10T05:11:58.531Z,12.95
2023-05-10T05:12:54.185Z,12.93
2023-05-10T05:13:50.250Z,12.98
2023-05-10T05:14:45.808Z,12.95
2023-05-10T05:15:41.356Z,12.95
2023-05-10T05:16:36.981Z,12.96
2023-05-10T05:17:32.428Z,13.02
2023-05-10T05:18:27.954Z,13.06
2023-05-10T05:19:23.535Z,13.02
2023-05-10T05:20:19.232Z,13.09
2023-05-10T05:21:14.616Z,13.06
2023-05-10T05:22:10.150Z,13.11
2023-05-10T05:23:05.695Z,13.08
2023-05-10T05:24:01.239Z,12.99
2023-05-10T05:24:56.806Z,12.98
2023-05-10T05:25:52.359Z,13.02
2023-05-10T05:26:47.895Z,13.06
2023-05-10T05:27:43.447Z,13.06
2023-05-10T05:28:38.973Z,12.95
2023-05-10T05:29:34.535Z,13.05
2023-05-10T05:30:30.108Z,13.05
2023-05-10T05:31:25.661Z,13.11
2023-05-10T05:32:21.180Z,13.09
2023-05-10T05:33:16.716Z,13.05
2023-05-10T05:34:12.266Z,12.98
2023-05-10T05:35:07.832Z,13.06
2023-05-10T05:36:03.400Z,12.93
2023-05-10T05:36:58.901Z,13.11
2023-05-10T05:37:54.448Z,13.11
2023-05-10T05:38:50.024Z,13.17
2023-05-10T05:39:45.555Z,13.11
2023-05-10T05:40:41.094Z,13.17
2023-05-10T05:41:36.635Z,13.23
2023-05-10T05:42:32.175Z,13.19
2023-05-10T05:43:16.857Z,13.20
2023-05-10T05:44:01.532Z,13.23
2023-05-10T05:44:57.089Z,13.30
2023-05-10T05:45:52.663Z,13.35
2023-05-10T05:46:48.214Z,13.26
2023-05-10T05:47:43.757Z,13.42
2023-05-10T05:48:39.282Z,13.36
2023-05-10T05:49:34.823Z,13.36
2023-05-10T05:50:30.377Z,13.30
2023-05-10T05:51:25.906Z,13.35
2023-05-10T05:52:21.455Z,13.42
2023-05-10T05:53:17.014Z,13.40
2023-05-10T05:54:12.549Z,13.45
2023-05-10T05:55:08.094Z,13.42
2023-05-10T05:56:03.627Z,13.43
2023-05-10T05:57:01.071Z,13.46
2023-05-10T05:57:54.709Z,13.47
2023-05-10T05:58:50.270Z,13.47
2023-05-10T05:59:45.822Z,13.49
2023-05-10T06:00:41.347Z,13.55
2023-05-10T06:01:36.897Z,13.46
2023-05-10T06:02:32.563Z,13.60
2023-05-10T06:03:28.056Z,13.57
2023-05-10T06:04:23.591Z,13.61
2023-05-10T06:05:19.179Z,13.72
2023-05-10T06:06:14.614Z,13.79
2023-05-10T06:07:10.165Z,13.72
2023-05-10T06:08:05.702Z,13.78
2023-05-10T06:08:50.412Z,13.73
2023-05-10T06:09:46.079Z,13.80
2023-05-10T06:10:41.594Z,13.79
2023-05-10T06:11:37.136Z,13.75
2023-05-10T06:12:32.671Z,13.88
2023-05-10T06:13:28.323Z,13.90
2023-05-10T06:14:23.757Z,14.00
2023-05-10T06:15:19.287Z,14.05
2023-05-10T06:16:14.865Z,14.04
2023-05-10T06:17:10.384Z,14.08
2023-05-10T06:18:06.024Z,14.08
2023-05-10T06:19:01.436Z,14.15
2023-05-10T06:19:56.976Z,14.11
2023-05-10T06:20:52.518Z,14.22
2023-05-10T06:21:48.083Z,14.18
2023-05-10T06:22:43.631Z,14.28
2023-05-10T06:23:28.278Z,14.37
2023-05-10T06:24:24.825Z,14.44
2023-05-10T06:25:20.376Z,14.48
2023-05-10T06:26:15.902Z,14.61
2023-05-10T06:27:11.447Z,14.74
2023-05-10T06:27:56.131Z,14.66
2023-05-10T06:28:51.663Z,14.85
2023-05-10T06:29:47.197Z,14.89
2023-05-10T06:30:42.735Z,15.11
2023-05-10T06:31:38.288Z,15.15
2023-05-10T06:32:33.874Z,15.12
2023-05-10T06:33:29.386Z,15.23
2023-05-10T06:34:24.919Z,15.30
2023-05-10T06:35:20.446Z,15.35
2023-05-10T06:36:15.986Z,15.33
2023-05-10T06:37:00.668Z,15.45
2023-05-10T06:37:56.211Z,15.58
2023-05-10T06:38:51.752Z,15.59
2023-05-10T06:39:47.289Z,15.84
2023-05-10T06:40:42.811Z,16.00
2023-05-10T06:41:38.363Z,16.06
2023-05-10T06:42:33.907Z,16.17
2023-05-10T06:43:29.491Z,16.16
2023-05-10T06:44:25.012Z,16.28
2023-05-10T06:45:20.657Z,16.33
2023-05-10T06:46:16.165Z,16.44
2023-05-10T06:47:11.634Z,16.42
2023-05-10T06:48:07.226Z,16.42
2023-05-10T06:49:02.749Z,16.43
2023-05-10T06:49:58.256Z,16.52
2023-05-10T06:50:53.803Z,16.57
2023-05-10T06:51:49.349Z,16.62
2023-05-10T06:52:44.878Z,16.73
2023-05-10T06:53:40.419Z,16.72
2023-05-10T06:54:35.980Z,16.77
2023-05-10T06:55:31.526Z,16.87
2023-05-10T06:56:27.061Z,16.94
2023-05-10T06:57:31.209Z,16.90
2023-05-10T06:58:18.168Z,16.94
2023-05-10T06:59:13.766Z,16.97
2023-05-10T07:00:09.278Z,17.02
2023-05-10T07:01:04.834Z,17.12
2023-05-10T07:02:00.388Z,17.12
2023-05-10T07:02:55.966Z,17.17
2023-05-10T07:03:51.468Z,17.19
2023-05-10T07:04:47.027Z,17.28
2023-05-10T07:05:42.597Z,17.37
2023-05-10T07:06:38.091Z,17.50
2023-05-10T07:07:33.621Z,17.50
2023-05-10T07:08:29.178Z,17.50
2023-05-10T07:09:24.752Z,17.47
2023-05-10T07:10:20.288Z,17.59
2023-05-10T07:11:15.844Z,17.53
2023-05-10T07:12:13.422Z,17.66
2023-05-10T07:13:07.010Z,17.72
2023-05-10T07:14:02.464Z,17.84
2023-05-10T07:14:58.025Z,17.93
2023-05-10T07:15:54.621Z,18.09
2023-05-10T07:16:50.112Z,18.11
2023-05-10T07:17:46.082Z,18.12
2023-05-10T07:18:41.265Z,18.13
2023-05-10T07:19:36.815Z,18.27
2023-05-10T07:20:32.341Z,18.24
2023-05-10T07:21:27.893Z,18.24
2023-05-10T07:22:23.417Z,18.27
2023-05-10T07:23:18.973Z,18.28
2023-05-10T07:24:14.537Z,18.30
2023-05-10T07:25:10.076Z,18.41
2023-05-10T07:26:05.611Z,18.36
2023-05-10T07:27:01.146Z,18.39
2023-05-10T07:27:56.693Z,18.36
2023-05-10T07:28:52.216Z,18.52
2023-05-10T07:29:36.885Z,18.48
2023-05-10T07:30:32.449Z,18.51
2023-05-10T07:31:27.994Z,18.52
2023-05-10T07:32:23.752Z,18.52
2023-05-10T07:33:19.142Z,18.39
2023-05-10T07:34:14.640Z,18.38
2023-05-10T07:35:10.170Z,18.36
2023-05-10T07:36:05.736Z,18.43
2023-05-10T07:37:01.306Z,18.39
2023-05-10T07:37:56.856Z,18.38
2023-05-10T07:38:52.435Z,18.30
2023-05-10T07:39:47.969Z,18.30
2023-05-10T07:40:43.540Z,18.39
2023-05-10T07:41:39.089Z,18.51
2023-05-10T07:42:34.658Z,18.49
2023-05-10T07:43:30.201Z,18.45
2023-05-10T07:44:25.751Z,18.58
2023-05-10T07:45:21.286Z,18.45
2023-05-10T07:46:16.862Z,18.49
2023-05-10T07:47:12.392Z,18.51
2023-05-10T07:48:07.956Z,18.48
2023-05-10T07:49:03.506Z,18.42
2023-05-10T07:49:59.060Z,18.48
2023-05-10T07:50:54.590Z,18.54
2023-05-10T07:51:50.149Z,18.52
2023-05-10T07:52:45.693Z,18.51
2023-05-10T07:53:41.263Z,18.34
2023-05-10T07:54:36.824Z,18.41
2023-05-10T07:55:32.373Z,18.30
2023-05-10T07:56:28.013Z,18.36
2023-05-10T07:57:23.556Z,18.39
2023-05-10T07:58:26.239Z,18.34
2023-05-10T07:59:12.654Z,18.34
2023-05-10T08:00:06.456Z,18.23
2023-05-10T08:01:01.999Z,18.28
2023-05-10T08:01:57.586Z,18.21
2023-05-10T08:02:53.122Z,18.28
2023-05-10T08:03:48.756Z,18.38
2023-05-10T08:04:44.249Z,18.30
2023-05-10T08:05:39.716Z,18.43
2023-05-10T08:06:35.269Z,18.46
2023-05-10T08:07:30.833Z,18.46
2023-05-10T08:08:26.349Z,18.54
2023-05-10T08:09:11.026Z,18.51
2023-05-10T08:10:06.563Z,18.57
2023-05-10T08:11:02.147Z,18.52
2023-05-10T08:11:57.669Z,18.52
2023-05-10T08:12:53.215Z,18.56
2023-05-10T08:13:48.757Z,18.48
2023-05-10T08:14:44.280Z,18.57
2023-05-10T08:15:39.911Z,18.60
2023-05-10T08:16:35.440Z,18.60
2023-05-10T08:17:30.945Z,18.60
2023-05-10T08:18:26.515Z,18.66
2023-05-10T08:19:22.013Z,18.51
2023-05-10T08:20:17.584Z,18.61
2023-05-10T08:21:13.094Z,18.57
2023-05-10T08:22:08.639Z,18.52
2023-05-10T08:23:04.196Z,18.54
2023-05-10T08:23:59.713Z,18.48
2023-05-10T08:24:55.254Z,18.61
2023-05-10T08:25:50.806Z,18.60
2023-05-10T08:26:46.325Z,18.60
2023-05-10T08:27:41.902Z,18.63
2023-05-10T08:28:37.412Z,18.79
2023-05-10T08:29:22.072Z,18.88
2023-05-10T08:30:17.630Z,18.81
2023-05-10T08:31:13.231Z,18.98
2023-05-10T08:32:08.728Z,18.91
2023-05-10T08:33:04.370Z,19.04
2023-05-10T08:33:59.810Z,19.04
2023-05-10T08:34:55.351Z,19.01
2023-05-10T08:35:40.092Z,19.07
2023-05-10T08:36:35.638Z,19.17
2023-05-10T08:37:31.190Z,19.20
2023-05-10T08:38:26.807Z,19.15
2023-05-10T08:39:29.879Z,19.20
2023-05-10T08:40:17.865Z,19.32
2023-05-10T08:41:13.419Z,19.37
2023-05-10T08:42:08.965Z,19.27
2023-05-10T08:43:04.513Z,19.31
2023-05-10T08:44:00.069Z,19.26
2023-05-10T08:44:55.609Z,19.24
2023-05-10T08:45:51.189Z,19.34
2023-05-10T08:46:46.771Z,19.45
2023-05-10T08:47:42.279Z,19.47
2023-05-10T08:48:37.818Z,19.47
2023-05-10T08:49:33.388Z,19.42
2023-05-10T08:50:28.928Z,19.45
2023-05-10T08:51:24.461Z,19.42
2023-05-10T08:52:20.034Z,19.56
2023-05-10T08:53:15.560Z,19.64
2023-05-10T08:54:11.131Z,19.68
2023-05-10T08:55:06.721Z,19.77
2023-05-10T08:56:02.259Z,19.79
2023-05-10T08:56:57.795Z,19.94
2023-05-10T08:57:53.324Z,19.90
2023-05-10T08:58:48.903Z,20.05
2023-05-10T08:59:44.441Z,20.08
2023-05-10T09:00:40.018Z,20.00
2023-05-10T09:01:35.534Z,20.22
2023-05-10T09:02:31.114Z,20.29
2023-05-10T09:03:15.780Z,20.32
2023-05-10T09:04:11.404Z,20.34
2023-05-10T09:05:06.898Z,20.49
2023-05-10T09:06:02.408Z,20.48
2023-05-10T09:06:57.955Z,20.53
2023-05-10T09:07:53.506Z,20.64
2023-05-10T09:08:49.060Z,20.68
2023-05-10T09:09:44.652Z,20.79
2023-05-10T09:10:40.147Z,20.85
2023-05-10T09:11:35.691Z,20.85
2023-05-10T09:12:31.228Z,20.93
2023-05-10T09:13:26.774Z,21.01
2023-05-10T09:14:22.315Z,21.16
2023-05-10T09:15:18.127Z,21.08
2023-05-10T09:16:21.075Z,21.28
2023-05-10T09:17:09.023Z,21.26
2023-05-10T09:18:04.506Z,21.48
2023-05-10T09:19:00.145Z,21.60
2023-05-10T09:19:55.594Z,21.58
2023-05-10T09:20:40.279Z,21.60
2023-05-10T09:21:35.811Z,21.73
2023-05-10T09:22:31.378Z,21.66
2023-05-10T09:23:26.896Z,21.81
2023-05-10T09:24:22.473Z,21.93
2023-05-10T09:25:18.388Z,21.93
2023-05-10T09:26:13.540Z,21.93
2023-05-10T09:27:09.079Z,22.01
2023-05-10T09:28:04.656Z,22.06
2023-05-10T09:29:00.208Z,21.97
2023-05-10T09:29:55.753Z,21.98
2023-05-10T09:30:51.306Z,22.13
2023-05-10T09:31:46.829Z,22.27
2023-05-10T09:32:42.387Z,22.23
2023-05-10T09:33:37.928Z,22.36
2023-05-10T09:34:33.518Z,22.38
2023-05-10T09:35:30.013Z,22.30
2023-05-10T09:36:24.576Z,22.44
2023-05-10T09:37:20.129Z,22.43
2023-05-10T09:38:15.676Z,22.59
2023-05-10T09:39:11.367Z,22.64
2023-05-10T09:40:06.915Z,22.67
2023-05-10T09:41:02.476Z,22.68
2023-05-10T09:41:47.115Z,22.70
2023-05-10T09:42:42.672Z,22.76
2023-05-10T09:43:38.256Z,22.88
2023-05-10T09:44:33.829Z,22.88
2023-05-10T09:45:29.374Z,23.04
2023-05-10T09:46:24.927Z,23.25
2023-05-10T09:47:20.430Z,23.39
2023-05-10T09:48:15.965Z,23.41
2023-05-10T09:49:11.524Z,23.49
2023-05-10T09:50:07.064Z,23.55
2023-05-10T09:51:02.628Z,23.74
2023-05-10T09:51:58.165Z,23.78
2023-05-10T09:52:53.702Z,23.67
2023-05-10T09:53:49.248Z,23.66
2023-05-10T09:54:44.795Z,23.64
2023-05-10T09:55:40.357Z,23.74
2023-05-10T09:56:35.914Z,23.89
2023-05-10T09:57:33.849Z,23.97
2023-05-10T09:58:26.984Z,24.03
2023-05-10T09:59:22.515Z,24.04
2023-05-10T10:00:18.065Z,24.18
2023-05-10T10:01:13.633Z,24.18
2023-05-10T10:02:09.149Z,24.33
2023-05-10T10:03:04.879Z,24.51
2023-05-10T10:04:00.248Z,24.56
2023-05-10T10:04:55.824Z,24.63
2023-05-10T10:05:51.321Z,24.60
2023-05-10T10:06:46.873Z,24.60
2023-05-10T10:07:42.410Z,24.71
2023-05-10T10:08:37.964Z,24.78
2023-05-10T10:09:33.513Z,24.97
2023-05-10T10:10:29.089Z,25.14
2023-05-10T10:11:24.670Z,25.23
2023-05-10T10:12:20.259Z,25.34
2023-05-10T10:13:15.755Z,25.34
2023-05-10T10:14:11.290Z,25.23
2023-05-10T10:15:06.854Z,25.16
2023-05-10T10:16:02.520Z,25.26
2023-05-10T10:17:07.234Z,25.15
2023-05-10T10:17:53.543Z,25.16
2023-05-10T10:18:49.074Z,25.14
2023-05-10T10:19:44.620Z,25.30
2023-05-10T10:20:40.190Z,25.40
2023-05-10T10:21:35.717Z,25.53
2023-05-10T10:22:31.297Z,25.67
2023-05-10T10:23:26.846Z,25.73
2023-05-10T10:24:22.383Z,25.83
2023-05-10T10:25:18.237Z,25.64
2023-05-10T10:26:13.488Z,25.77
2023-05-10T10:27:09.044Z,25.81
2023-05-10T10:28:04.700Z,25.86
2023-05-10T10:29:00.186Z,25.98
2023-05-10T10:29:55.736Z,26.11
2023-05-10T10:30:51.277Z,26.08
2023-05-10T10:31:46.941Z,26.15
2023-05-10T10:32:42.377Z,26.21
2023-05-10T10:33:37.939Z,26.23
2023-05-10T10:34:22.614Z,26.11
2023-05-10T10:35:18.427Z,26.12
2023-05-10T10:36:13.725Z,26.20
2023-05-10T10:37:09.261Z,26.20
2023-05-10T10:38:04.806Z,26.26
2023-05-10T10:39:00.444Z,26.24
2023-05-10T10:39:55.953Z,26.24
2023-05-10T10:40:51.498Z,26.27
2023-05-10T10:41:47.038Z,26.43
2023-05-10T10:42:42.575Z,26.43
2023-05-10T10:43:38.172Z,26.43
2023-05-10T10:44:33.703Z,26.45
2023-05-10T10:45:29.246Z,26.38
2023-05-10T10:46:24.816Z,26.52
2023-05-10T10:47:20.441Z,26.58
2023-05-10T10:48:15.908Z,26.63
2023-05-10T10:49:11.492Z,26.53
2023-05-10T10:50:07.036Z,26.46
2023-05-10T10:51:02.576Z,26.56
2023-05-10T10:51:58.127Z,26.52
2023-05-10T10:52:53.682Z,26.61
2023-05-10T10:53:49.265Z,26.71
2023-05-10T10:54:44.777Z,26.75
2023-05-10T10:55:40.339Z,26.76
2023-05-10T10:56:37.173Z,26.79
2023-05-10T10:57:31.443Z,26.75
2023-05-10T10:58:26.996Z,26.79
2023-05-10T10:59:22.576Z,26.86
2023-05-10T11:00:18.108Z,26.86
2023-05-10T11:01:13.683Z,26.83
2023-05-10T11:02:09.224Z,26.85
2023-05-10T11:03:04.790Z,27.03
2023-05-10T11:04:00.350Z,27.12
2023-05-10T11:04:55.848Z,27.08
2023-05-10T11:05:51.401Z,27.12
2023-05-10T11:06:46.955Z,26.94
2023-05-10T11:07:42.496Z,27.12
2023-05-10T11:08:38.416Z,27.04
2023-05-10T11:09:33.599Z,27.07
2023-05-10T11:10:29.247Z,26.94
2023-05-10T11:11:24.795Z,26.93
2023-05-10T11:12:20.347Z,26.93
2023-05-10T11:13:15.906Z,26.97
2023-05-10T11:14:11.465Z,27.12
2023-05-10T11:15:07.030Z,27.23
2023-05-10T11:16:02.567Z,27.12
2023-05-10T11:16:58.188Z,27.23
2023-05-10T11:17:53.724Z,27.20
2023-05-10T11:18:50.268Z,27.35
2023-05-10T11:19:44.777Z,27.44
2023-05-10T11:20:40.332Z,27.32
2023-05-10T11:21:35.894Z,27.20
2023-05-10T11:22:31.455Z,27.07
2023-05-10T11:23:27.002Z,26.90
2023-05-10T11:24:22.551Z,27.08
2023-05-10T11:25:18.102Z,27.10
2023-05-10T11:26:13.650Z,26.97
2023-05-10T11:27:09.208Z,26.93
2023-05-10T11:28:04.748Z,27.08
2023-05-10T11:29:00.301Z,27.17
2023-05-10T11:29:55.859Z,27.20
2023-05-10T11:30:51.470Z,27.08
2023-05-10T11:31:46.957Z,26.95
2023-05-10T11:32:42.595Z,26.98
2023-05-10T11:33:38.045Z,27.07
2023-05-10T11:34:33.616Z,27.05
2023-05-10T11:35:29.161Z,27.13
2023-05-10T11:36:24.710Z,27.19
2023-05-10T11:37:20.251Z,27.15
2023-05-10T11:38:15.825Z,27.13
2023-05-10T11:39:11.366Z,27.15
2023-05-10T11:40:06.908Z,27.07
2023-05-10T11:41:02.446Z,27.15
2023-05-10T11:41:58.030Z,27.20
2023-05-10T11:43:16.317Z,27.20
2023-05-10T11:44:11.923Z,27.20
2023-05-10T11:45:07.483Z,27.16
2023-05-10T11:46:03.098Z,27.15
2023-05-10T11:46:58.596Z,27.13
2023-05-10T11:47:54.201Z,26.98
2023-05-10T11:48:49.704Z,26.94
2023-05-10T11:49:45.262Z,26.97
2023-05-10T11:50:40.822Z,27.07
2023-05-10T11:51:36.370Z,27.00
2023-05-10T11:52:32.649Z,26.93